Time,TemperatureF,DewpointF,PressureIn,WindDirection,WindDirectionDegrees,WindSpeedMPH,WindSpeedGustMPH,Humidity,HourlyPrecipIn,Conditions,Clouds,dailyrainin,SolarRadiationWatts/m^2,SoftwareType,DateUTC
2013-03-19 00:00:00,57.1,23.4,29.93,SSE,164,0.0,4.0,27,0.00,,,0.00,0,Wunderground v.1.15,2013-03-19 07:00:00,
2013-03-19 00:10:00,56.8,23.1,29.93,SSE,157,0.0,4.0,27,0.00,,,0.00,0,Wunderground v.1.15,2013-03-19 07:10:00,
2013-03-19 00:20:00,55.3,22.7,29.93,East,81,0.0,4.0,28,0.00,,,0.00,0,Wunderground v.1.15,2013-03-19 07:20:00,
2013-03-19 00:30:00,56.4,23.7,29.92,East,101,3.0,3.0,28,0.00,,,0.00,0,Wunderground v.1.15,2013-03-19 07:30:00,
2013-03-19 00:40:00,57.5,23.7,29.92,SW,224,2.0,2.0,27,0.00,,,0.00,0,Wunderground v.1.15,2013-03-19 07:40:00,
2013-03-19 00:50:00,57.7,23.9,29.92,WSW,250,0.0,4.0,27,0.00,,,0.00,0,Wunderground v.1.15,2013-03-19 07:50:00,
2013-03-19 01:00:00,57.6,23.8,29.92,WSW,250,0.0,4.0,27,0.00,,,0.00,0,Wunderground v.1.15,2013-03-19 08:00:00,
2013-03-19 01:10:00,57.3,25.3,29.92,SSW,205,0.0,4.0,29,0.00,,,0.00,0,Wunderground v.1.15,2013-03-19 08:10:00,
2013-03-19 01:20:00,56.8,24.8,29.92,SSW,205,0.0,4.0,29,0.00,,,0.00,0,Wunderground v.1.15,2013-03-19 08:20:00,
2013-03-19 01:30:00,55.4,24.4,29.92,SSW,205,0.0,4.0,30,0.00,,,0.00,0,Wunderground v.1.15,2013-03-19 08:30:00,
2013-03-19 01:40:00,54.5,24.4,29.91,SSW,205,0.0,4.0,31,0.00,,,0.00,0,Wunderground v.1.15,2013-03-19 08:40:00,
2013-03-19 01:50:00,53.4,22.7,29.91,SSW,205,0.0,4.0,30,0.00,,,0.00,0,Wunderground v.1.15,2013-03-19 08:50:00,
2013-03-19 02:00:00,52.1,22.3,29.91,SW,228,0.0,4.0,31,0.00,,,0.00,0,Wunderground v.1.15,2013-03-19 09:00:00,
2013-03-19 02:10:00,50.6,23.2,29.91,SW,228,0.0,4.0,34,0.00,,,0.00,0,Wunderground v.1.15,2013-03-19 09:10:00,
2013-03-19 02:20:00,49.0,23.2,29.91,SW,235,0.0,4.0,36,0.00,,,0.00,0,Wunderground v.1.15,2013-03-19 09:20:00,
2013-03-19 02:30:00,48.7,23.6,29.91,SW,236,0.0,4.0,37,0.00,,,0.00,0,Wunderground v.1.15,2013-03-19 09:30:00,
2013-03-19 02:40:00,48.2,23.1,29.90,SW,236,0.0,4.0,37,0.00,,,0.00,0,Wunderground v.1.15,2013-03-19 09:40:00,
2013-03-19 02:50:00,47.4,24.3,29.90,SW,236,0.0,4.0,40,0.00,,,0.00,0,Wunderground v.1.15,2013-03-19 09:50:00,
2013-03-19 03:00:00,47.3,24.2,29.90,SW,236,0.0,4.0,40,0.00,,,0.00,0,Wunderground v.1.15,2013-03-19 10:00:00,
2013-03-19 03:10:00,48.1,25.5,29.90,SW,236,0.0,4.0,41,0.00,,,0.00,0,Wunderground v.1.15,2013-03-19 10:10:00,
2013-03-19 03:20:00,48.2,26.2,29.90,SSW,213,0.0,4.0,42,0.00,,,0.00,0,Wunderground v.1.15,2013-03-19 10:20:00,
2013-03-19 03:30:00,48.7,26.6,29.90,South,180,1.0,1.0,42,0.00,,,0.00,0,Wunderground v.1.15,2013-03-19 10:30:00,
2013-03-19 03:40:00,49.2,26.5,29.90,South,175,0.0,4.0,41,0.00,,,0.00,0,Wunderground v.1.15,2013-03-19 10:40:00,
2013-03-19 03:50:00,49.4,26.7,29.90,South,186,0.0,4.0,41,0.00,,,0.00,0,Wunderground v.1.15,2013-03-19 10:50:00,
2013-03-19 04:00:00,49.3,27.2,29.90,South,186,0.0,4.0,42,0.00,,,0.00,0,Wunderground v.1.15,2013-03-19 11:00:00,
2013-03-19 04:10:00,49.1,27.5,29.90,South,186,0.0,4.0,43,0.00,,,0.00,0,Wunderground v.1.15,2013-03-19 11:10:00,
2013-03-19 04:20:00,49.4,28.4,29.90,South,182,0.0,4.0,44,0.00,,,0.00,0,Wunderground v.1.15,2013-03-19 11:20:00,
2013-03-19 04:30:00,50.0,28.9,29.89,South,180,0.0,4.0,44,0.00,,,0.00,0,Wunderground v.1.15,2013-03-19 11:30:00,
2013-03-19 04:40:00,50.4,28.7,29.90,SSW,208,0.0,4.0,43,0.00,,,0.00,0,Wunderground v.1.15,2013-03-19 11:40:00,
2013-03-19 04:50:00,50.7,29.0,29.89,SW,221,2.0,5.0,43,0.00,,,0.00,0,Wunderground v.1.15,2013-03-19 11:50:00,
2013-03-19 05:00:00,52.1,28.5,29.89,South,191,5.0,5.0,40,0.00,,,0.00,0,Wunderground v.1.15,2013-03-19 12:00:00,
2013-03-19 05:10:00,52.4,28.1,29.89,SSW,199,7.0,7.0,39,0.00,,,0.00,0,Wunderground v.1.15,2013-03-19 12:10:00,
2013-03-19 05:20:00,52.5,27.6,29.89,SW,227,8.0,8.0,38,0.00,,,0.00,0,Wunderground v.1.15,2013-03-19 12:20:00,
2013-03-19 05:30:00,51.1,27.6,29.89,SW,231,6.0,6.0,40,0.00,,,0.00,0,Wunderground v.1.15,2013-03-19 12:30:00,
2013-03-19 05:40:00,49.8,28.7,29.90,SW,231,5.0,6.0,44,0.00,,,0.00,0,Wunderground v.1.15,2013-03-19 12:40:00,
2013-03-19 05:50:00,49.9,28.8,29.90,SW,236,5.0,6.0,44,0.00,,,0.00,0,Wunderground v.1.15,2013-03-19 12:50:00,
2013-03-19 06:00:00,50.1,29.0,29.90,SW,223,5.0,5.0,44,0.00,,,0.00,0,Wunderground v.1.15,2013-03-19 13:00:00,
2013-03-19 06:10:00,50.5,29.4,29.91,SW,227,6.0,6.0,44,0.00,,,0.00,0,Wunderground v.1.15,2013-03-19 13:10:00,
2013-03-19 06:20:00,51.4,30.2,29.91,SW,233,4.0,5.0,44,0.00,,,0.00,0,Wunderground v.1.15,2013-03-19 13:20:00,
2013-03-19 06:30:00,51.8,29.4,29.91,SSW,197,5.0,5.0,42,0.00,,,0.00,9,Wunderground v.1.15,2013-03-19 13:30:00,
2013-03-19 06:40:00,53.0,29.3,29.91,SSW,199,7.0,9.0,40,0.00,,,0.00,19,Wunderground v.1.15,2013-03-19 13:40:00,
2013-03-19 06:50:00,53.7,28.7,29.91,South,188,8.0,8.0,38,0.00,,,0.00,33,Wunderground v.1.15,2013-03-19 13:50:00,
2013-03-19 07:00:00,53.9,26.8,29.91,South,187,5.0,6.0,35,0.00,,,0.00,63,Wunderground v.1.15,2013-03-19 14:00:00,
2013-03-19 07:10:00,54.0,26.9,29.91,South,179,5.0,5.0,35,0.00,,,0.00,81,Wunderground v.1.15,2013-03-19 14:10:00,
2013-03-19 07:20:00,54.0,26.9,29.92,South,184,5.0,12.0,35,0.00,,,0.00,77,Wunderground v.1.15,2013-03-19 14:20:00,
2013-03-19 07:30:00,53.9,26.1,29.93,SSW,200,5.0,12.0,34,0.00,,,0.00,113,Wunderground v.1.15,2013-03-19 14:30:00,
2013-03-19 07:40:00,54.7,25.4,29.93,SSW,205,6.0,12.0,32,0.00,,,0.00,236,Wunderground v.1.15,2013-03-19 14:40:00,
2013-03-19 07:50:00,55.6,26.9,29.93,South,185,5.0,5.0,33,0.00,,,0.00,188,Wunderground v.1.15,2013-03-19 14:50:00,
2013-03-19 08:00:00,55.8,27.1,29.94,South,186,4.0,12.0,33,0.00,,,0.00,258,Wunderground v.1.15,2013-03-19 15:00:00,
2013-03-19 08:10:00,57.1,28.2,29.94,South,177,4.0,8.0,33,0.00,,,0.00,327,Wunderground v.1.15,2013-03-19 15:10:00,
2013-03-19 08:20:00,58.6,28.8,29.93,SE,145,4.0,4.0,32,0.00,,,0.00,311,Wunderground v.1.15,2013-03-19 15:20:00,
2013-03-19 08:30:00,59.5,28.8,29.93,SSE,166,5.0,7.0,31,0.00,,,0.00,422,Wunderground v.1.15,2013-03-19 15:30:00,
2013-03-19 08:40:00,60.2,29.4,29.93,South,169,7.0,7.0,31,0.00,,,0.00,369,Wunderground v.1.15,2013-03-19 15:40:00,
2013-03-19 08:50:00,61.3,29.6,29.93,SE,143,4.0,5.0,30,0.00,,,0.00,497,Wunderground v.1.15,2013-03-19 15:50:00,
2013-03-19 09:00:00,62.2,31.2,29.93,South,169,5.0,5.0,31,0.00,,,0.00,538,Wunderground v.1.15,2013-03-19 16:00:00,
2013-03-19 09:10:00,64.7,29.9,29.92,South,182,6.0,13.0,27,0.00,,,0.00,534,Wunderground v.1.15,2013-03-19 16:10:00,
2013-03-19 09:20:00,65.6,29.8,29.93,South,182,9.0,13.0,26,0.00,,,0.00,594,Wunderground v.1.15,2013-03-19 16:20:00,
2013-03-19 09:30:00,66.3,29.4,29.93,South,191,8.0,13.0,25,0.00,,,0.00,605,Wunderground v.1.15,2013-03-19 16:30:00,
2013-03-19 09:40:00,66.9,28.9,29.93,SSW,204,8.0,8.0,24,0.00,,,0.00,638,Wunderground v.1.15,2013-03-19 16:40:00,
2013-03-19 09:50:00,67.3,29.2,29.93,SW,223,8.0,8.0,24,0.00,,,0.00,682,Wunderground v.1.15,2013-03-19 16:50:00,
2013-03-19 10:00:00,67.8,29.7,29.93,SW,218,8.0,13.0,24,0.00,,,0.00,729,Wunderground v.1.15,2013-03-19 17:00:00,
2013-03-19 10:10:00,69.3,27.7,29.92,SSW,202,6.0,17.0,21,0.00,,,0.00,833,Wunderground v.1.15,2013-03-19 17:10:00,
2013-03-19 10:20:00,69.7,26.8,29.93,South,182,9.0,9.0,20,0.00,,,0.00,877,Wunderground v.1.15,2013-03-19 17:20:00,
2013-03-19 10:30:00,70.1,21.8,29.93,West,280,5.0,13.0,16,0.00,,,0.00,902,Wunderground v.1.15,2013-03-19 17:30:00,
2013-03-19 10:40:00,70.5,24.9,29.94,NE,39,4.0,4.0,18,0.00,,,0.00,949,Wunderground v.1.15,2013-03-19 17:40:00,
2013-03-19 10:50:00,70.5,22.1,29.94,NNE,14,4.0,13.0,16,0.00,,,0.00,489,Wunderground v.1.15,2013-03-19 17:50:00,
2013-03-19 11:00:00,70.2,23.3,29.94,NW,324,4.0,4.0,17,0.00,,,0.00,432,Wunderground v.1.15,2013-03-19 18:00:00,
2013-03-19 11:10:00,69.4,18.1,29.94,WNW,301,5.0,5.0,14,0.00,,,0.00,422,Wunderground v.1.15,2013-03-19 18:10:00,
2013-03-19 11:20:00,69.4,18.1,29.94,WNW,302,6.0,6.0,14,0.00,,,0.00,403,Wunderground v.1.15,2013-03-19 18:20:00,
2013-03-19 11:30:00,70.4,17.2,29.94,NW,311,4.0,5.0,13,0.00,,,0.00,853,Wunderground v.1.15,2013-03-19 18:30:00,
2013-03-19 11:40:00,71.4,16.1,29.94,WNW,292,9.0,12.0,12,0.00,,,0.00,877,Wunderground v.1.15,2013-03-19 18:40:00,
2013-03-19 11:50:00,71.5,14.2,29.94,WNW,291,10.0,12.0,11,0.00,,,0.00,891,Wunderground v.1.15,2013-03-19 18:50:00,
2013-03-19 12:00:00,71.0,17.6,29.93,West,264,8.0,11.0,13,0.00,,,0.00,823,Wunderground v.1.15,2013-03-19 19:00:00,
2013-03-19 12:10:00,71.0,19.4,29.93,NW,305,8.0,12.0,14,0.00,,,0.00,807,Wunderground v.1.15,2013-03-19 19:10:00,
2013-03-19 12:20:00,71.2,19.5,29.93,WNW,296,9.0,9.0,14,0.00,,,0.00,752,Wunderground v.1.15,2013-03-19 19:20:00,
2013-03-19 12:30:00,71.6,19.8,29.93,North,360,7.0,7.0,14,0.00,,,0.00,846,Wunderground v.1.15,2013-03-19 19:30:00,
2013-03-19 12:40:00,71.7,19.9,29.93,NNW,338,7.0,7.0,14,0.00,,,0.00,675,Wunderground v.1.15,2013-03-19 19:40:00,
2013-03-19 12:50:00,71.2,21.1,29.92,NNW,329,8.0,8.0,15,0.00,,,0.00,939,Wunderground v.1.15,2013-03-19 19:50:00,
2013-03-19 13:00:00,72.1,21.9,29.92,NNW,333,4.0,12.0,15,0.00,,,0.00,916,Wunderground v.1.15,2013-03-19 20:00:00,
2013-03-19 13:10:00,73.0,20.9,29.92,WNW,292,7.0,12.0,14,0.00,,,0.00,905,Wunderground v.1.15,2013-03-19 20:10:00,
2013-03-19 13:20:00,73.1,21.0,29.91,NNW,335,2.0,2.0,14,0.00,,,0.00,884,Wunderground v.1.15,2013-03-19 20:20:00,
2013-03-19 13:30:00,73.1,22.7,29.90,NW,325,4.0,12.0,15,0.00,,,0.00,872,Wunderground v.1.15,2013-03-19 20:30:00,
2013-03-19 13:40:00,73.0,22.6,29.90,North,5,6.0,6.0,15,0.00,,,0.00,863,Wunderground v.1.15,2013-03-19 20:40:00,
2013-03-19 13:50:00,73.8,23.2,29.90,West,275,6.0,6.0,15,0.00,,,0.00,851,Wunderground v.1.15,2013-03-19 20:50:00,
2013-03-19 14:00:00,74.0,23.4,29.90,NNW,329,2.0,2.0,15,0.00,,,0.00,851,Wunderground v.1.15,2013-03-19 21:00:00,
2013-03-19 14:10:00,74.6,23.9,29.89,WSW,249,5.0,12.0,15,0.00,,,0.00,816,Wunderground v.1.15,2013-03-19 21:10:00,
2013-03-19 14:20:00,74.8,24.0,29.89,West,271,4.0,12.0,15,0.00,,,0.00,805,Wunderground v.1.15,2013-03-19 21:20:00,
2013-03-19 14:30:00,74.4,23.7,29.88,WNW,296,5.0,5.0,15,0.00,,,0.00,664,Wunderground v.1.15,2013-03-19 21:30:00,
2013-03-19 14:40:00,73.9,24.8,29.88,WNW,287,6.0,6.0,16,0.00,,,0.00,475,Wunderground v.1.15,2013-03-19 21:40:00,
2013-03-19 14:50:00,73.9,24.8,29.88,NW,306,5.0,12.0,16,0.00,,,0.00,749,Wunderground v.1.15,2013-03-19 21:50:00,
2013-03-19 15:00:00,73.8,24.8,29.88,NNW,339,9.0,12.0,16,0.00,,,0.00,698,Wunderground v.1.15,2013-03-19 22:00:00,
2013-03-19 15:10:00,73.8,24.8,29.87,NW,315,6.0,6.0,16,0.00,,,0.00,568,Wunderground v.1.15,2013-03-19 22:10:00,
2013-03-19 15:20:00,73.8,24.8,29.87,WNW,282,8.0,9.0,16,0.00,,,0.00,626,Wunderground v.1.15,2013-03-19 22:20:00,
2013-03-19 15:30:00,74.4,25.2,29.87,WNW,290,6.0,13.0,16,0.00,,,0.00,585,Wunderground v.1.15,2013-03-19 22:30:00,
2013-03-19 15:40:00,73.9,24.8,29.88,WNW,303,9.0,13.0,16,0.00,,,0.00,520,Wunderground v.1.15,2013-03-19 22:40:00,
2013-03-19 15:50:00,74.2,25.1,29.88,NW,313,11.0,11.0,16,0.00,,,0.00,522,Wunderground v.1.15,2013-03-19 22:50:00,
2013-03-19 16:00:00,73.8,24.8,29.88,NW,317,10.0,12.0,16,0.00,,,0.00,524,Wunderground v.1.15,2013-03-19 23:00:00,
2013-03-19 16:10:00,73.7,24.7,29.88,West,279,5.0,18.0,16,0.00,,,0.00,492,Wunderground v.1.15,2013-03-19 23:10:00,
2013-03-19 16:20:00,74.0,24.9,29.88,NW,311,8.0,18.0,16,0.00,,,0.00,406,Wunderground v.1.15,2013-03-19 23:20:00,
2013-03-19 16:30:00,73.6,24.6,29.88,WNW,284,7.0,7.0,16,0.00,,,0.00,432,Wunderground v.1.15,2013-03-19 23:30:00,
2013-03-19 16:40:00,73.3,25.8,29.88,NNW,331,9.0,18.0,17,0.00,,,0.00,383,Wunderground v.1.15,2013-03-19 23:40:00,
2013-03-19 16:50:00,73.3,25.8,29.89,WNW,284,7.0,7.0,17,0.00,,,0.00,271,Wunderground v.1.15,2013-03-19 23:50:00,
2013-03-19 17:00:00,73.6,26.1,29.88,WNW,283,4.0,4.0,17,0.00,,,0.00,295,Wunderground v.1.15,2013-03-20 00:00:00,
2013-03-19 17:10:00,73.4,24.4,29.89,NW,309,6.0,14.0,16,0.00,,,0.00,315,Wunderground v.1.15,2013-03-20 00:10:00,
2013-03-19 17:20:00,72.6,25.3,29.89,West,276,9.0,9.0,17,0.00,,,0.00,153,Wunderground v.1.15,2013-03-20 00:20:00,
2013-03-19 17:30:00,72.4,25.1,29.89,NW,315,9.0,9.0,17,0.00,,,0.00,188,Wunderground v.1.15,2013-03-20 00:30:00,
2013-03-19 17:40:00,72.2,24.9,29.89,NW,305,6.0,6.0,17,0.00,,,0.00,98,Wunderground v.1.15,2013-03-20 00:40:00,
2013-03-19 17:50:00,71.5,25.7,29.90,NW,313,4.0,4.0,18,0.00,,,0.00,49,Wunderground v.1.15,2013-03-20 00:50:00,
2013-03-19 18:00:00,70.7,25.1,29.90,WNW,284,3.0,3.0,18,0.00,,,0.00,49,Wunderground v.1.15,2013-03-20 01:00:00,
2013-03-19 18:10:00,70.2,24.7,29.91,WNW,294,3.0,16.0,18,0.00,,,0.00,25,Wunderground v.1.15,2013-03-20 01:10:00,
2013-03-19 18:20:00,69.3,25.2,29.91,WNW,297,5.0,16.0,19,0.00,,,0.00,16,Wunderground v.1.15,2013-03-20 01:20:00,
2013-03-19 18:30:00,68.7,24.7,29.91,NW,308,2.0,2.0,19,0.00,,,0.00,0,Wunderground v.1.15,2013-03-20 01:30:00,
2013-03-19 18:40:00,67.9,26.5,29.92,NNW,331,0.0,16.0,21,0.00,,,0.00,0,Wunderground v.1.15,2013-03-20 01:40:00,
2013-03-19 18:50:00,66.9,26.8,29.92,NNW,343,1.0,16.0,22,0.00,,,0.00,0,Wunderground v.1.15,2013-03-20 01:50:00,
2013-03-19 19:00:00,66.0,26.0,29.92,WNW,302,3.0,16.0,22,0.00,,,0.00,0,Wunderground v.1.15,2013-03-20 02:00:00,
2013-03-19 19:10:00,65.3,26.5,29.92,NW,316,1.0,1.0,23,0.00,,,0.00,0,Wunderground v.1.15,2013-03-20 02:10:00,
2013-03-19 19:20:00,64.7,26.0,29.93,NW,317,1.0,1.0,23,0.00,,,0.00,0,Wunderground v.1.15,2013-03-20 02:20:00,
2013-03-19 19:30:00,64.3,26.7,29.94,NNW,329,0.0,0.0,24,0.00,,,0.00,0,Wunderground v.1.15,2013-03-20 02:30:00,
2013-03-19 19:40:00,63.5,26.0,29.94,NNW,329,0.0,0.0,24,0.00,,,0.00,0,Wunderground v.1.15,2013-03-20 02:40:00,
2013-03-19 19:50:00,62.3,26.0,29.94,NW,311,1.0,3.0,25,0.00,,,0.00,0,Wunderground v.1.15,2013-03-20 02:50:00,
2013-03-19 20:00:00,61.7,26.4,29.96,WNW,298,6.0,6.0,26,0.00,,,0.00,0,Wunderground v.1.15,2013-03-20 03:00:00,
2013-03-19 20:10:00,61.7,26.4,29.96,NW,313,2.0,2.0,26,0.00,,,0.00,0,Wunderground v.1.15,2013-03-20 03:10:00,
2013-03-19 20:20:00,60.3,26.1,29.96,NW,320,0.0,6.0,27,0.00,,,0.00,0,Wunderground v.1.15,2013-03-20 03:20:00,
2013-03-19 20:30:00,59.9,25.8,29.96,NW,309,0.0,6.0,27,0.00,,,0.00,0,Wunderground v.1.15,2013-03-20 03:30:00,
2013-03-19 20:40:00,59.4,26.2,29.96,WNW,302,2.0,6.0,28,0.00,,,0.00,0,Wunderground v.1.15,2013-03-20 03:40:00,
2013-03-19 20:50:00,58.6,26.4,29.97,WNW,301,1.0,1.0,29,0.00,,,0.00,0,Wunderground v.1.15,2013-03-20 03:50:00,
2013-03-19 21:00:00,58.4,27.1,29.97,NW,306,0.0,6.0,30,0.00,,,0.00,0,Wunderground v.1.15,2013-03-20 04:00:00,
2013-03-19 21:10:00,58.4,26.2,29.97,NW,306,0.0,0.0,29,0.00,,,0.00,0,Wunderground v.1.15,2013-03-20 04:10:00,
2013-03-19 21:20:00,57.1,25.9,29.98,NW,306,0.0,0.0,30,0.00,,,0.00,0,Wunderground v.1.15,2013-03-20 04:20:00,
2013-03-19 21:30:00,56.1,25.8,29.98,NW,306,0.0,0.0,31,0.00,,,0.00,0,Wunderground v.1.15,2013-03-20 04:30:00,
2013-03-19 21:40:00,55.8,26.3,29.98,NW,306,0.0,0.0,32,0.00,,,0.00,0,Wunderground v.1.15,2013-03-20 04:40:00,
2013-03-19 21:50:00,55.2,25.8,29.99,NW,306,0.0,0.0,32,0.00,,,0.00,0,Wunderground v.1.15,2013-03-20 04:50:00,
2013-03-19 22:00:00,54.8,26.2,29.99,NW,306,0.0,0.0,33,0.00,,,0.00,0,Wunderground v.1.15,2013-03-20 05:00:00,
2013-03-19 22:10:00,54.1,26.3,29.99,NW,306,0.0,4.0,34,0.00,,,0.00,0,Wunderground v.1.15,2013-03-20 05:10:00,
2013-03-19 22:20:00,53.0,26.0,29.99,ENE,78,0.0,4.0,35,0.00,,,0.00,0,Wunderground v.1.15,2013-03-20 05:20:00,
2013-03-19 22:30:00,52.9,26.0,30.00,ENE,78,0.0,4.0,35,0.00,,,0.00,0,Wunderground v.1.15,2013-03-20 05:30:00,
2013-03-19 22:40:00,52.4,26.2,30.00,SSW,202,0.0,4.0,36,0.00,,,0.00,0,Wunderground v.1.15,2013-03-20 05:40:00,
2013-03-19 22:50:00,52.4,26.2,30.00,SSW,202,0.0,4.0,36,0.00,,,0.00,0,Wunderground v.1.15,2013-03-20 05:50:00,
2013-03-19 23:00:00,52.7,26.5,30.00,ESE,117,0.0,4.0,36,0.00,,,0.00,0,Wunderground v.1.15,2013-03-20 06:00:00,
2013-03-19 23:10:00,53.2,26.2,30.00,NNE,20,0.0,4.0,35,0.00,,,0.00,0,Wunderground v.1.15,2013-03-20 06:10:00,
2013-03-19 23:20:00,54.0,26.2,30.00,North,360,1.0,1.0,34,0.00,,,0.00,0,Wunderground v.1.15,2013-03-20 06:20:00,
2013-03-19 23:30:00,54.0,26.2,30.01,NW,309,0.0,4.0,34,0.00,,,0.00,0,Wunderground v.1.15,2013-03-20 06:30:00,
2013-03-19 23:40:00,53.1,26.8,30.02,SW,217,0.0,4.0,36,0.00,,,0.00,0,Wunderground v.1.15,2013-03-20 06:40:00,
2013-03-19 23:50:00,52.1,26.6,30.02,South,178,0.0,4.0,37,0.00,,,0.00,0,Wunderground v.1.15,2013-03-20 06:50:00,